Plymouth Light

42° 00' 12"N, 70° 36' 04"W, Elevation 54 ft.
Eastern Time

Hourly observations for the last 72 hours

Date Time Temperature (°F) Humi-
dity

(%)
Wind
(mph)
Pressure Rain (in) Sun
(W/m2)
ET
(in)
Air Dew 6 Hour 1 Hr 3 Hr 6 Hr Day
Alt
(in)
Sea
Level

(mb)
Max Min
4 16:00 74.5 62.8 67 SW 14 G 21 29.78 1008.6 0.00 628 0.131
4 15:00 74.2 62.6 67 SSW 11 G 19 29.78 1008.7 0.00 281 0.116
4 14:00 66.4 60.7 74.2 65.1 82 SE 7 G 13 29.79 1008.8 0.00 207 0.098
4 13:00 67.8 62.1 82 SE 10 G 17 29.80 1009.2 0.00 882 0.077
4 12:00 67.3 63.0 86 SSE 7 G 12 29.81 1009.3 0.00 884 0.057
4 11:00 71.4 63.8 77 SE 3 G 8 29.81 1009.3 0.00 826 0.038
4 10:00 70.5 63.7 79 SW 3 G 5 29.80 1009.1 0.00 721 0.022
4 09:00 70.3 64.5 82 W 2 G 3 29.78 1008.6 0.00 580 0.011
4 08:00 65.1 64.2 66.0 59.8 97 W 2 G 4 29.75 1007.6 0.00 355 0.005
4 07:00 63.0 62.1 97 WSW 2 G 5 29.73 1006.7 0.00 188 0.002
4 06:00 60.4 59.5 97 SW 5 G 6 29.70 1006.0 0.00 70 0.001
4 05:00 61.2 60.1 96 WSW 2 G 4 29.69 1005.3 0.00 0 0.001
4 04:00 63.5 62.3 96 SSW 5 G 6 29.67 1004.6 0.00 0 0.001
4 03:00 64.5 62.1 92 NE 3 G 4 29.66 1004.3 0.00 0 0.001
4 02:00 65.9 61.9 69.7 63.4 87 NE 1 G 2 29.65 1003.9 0.00 0 0.001
4 01:00 64.9 60.9 87 NE 2 G 4 29.62 1003.2 0.00 0 0.000
4 00:00 68.8 65.4 89 W 4 G 7 29.60 1002.5 0.00 0 0.125
3 23:00 67.9 64.9 90 N 4 G 7 29.59 1002.1 0.00 0 0.124
3 22:00 65.9 62.9 90 SW 4 G 10 29.57 1001.4 0.00 0 0.123
3 21:00 65.7 62.1 88 SW 11 G 14 29.54 1000.2 0.00 0 0.122
3 20:00 67.9 62.6 72.8 64.7 83 SSW 12 G 15 29.51 999.4 0.00 14 0.119
3 19:00 72.2 65.3 79 WSW 8 G 15 29.52 999.7 0.00 105 0.114
3 18:00 69.1 63.4 82 WSW 4 G 12 29.49 998.7 0.00 292 0.104
3 17:00 66.7 62.4 86 SW 11 G 15 29.49 998.5 0.00 248 0.096
3 16:00 65.6 61.6 87 SW 11 G 16 29.49 998.6 0.00 118 0.092
3 15:00 65.9 61.6 86 SSW 8 G 13 29.50 999.0 0.00 213 0.085
3 14:00 67.5 60.8 70.5 60.2 79 S 9 G 15 29.49 998.7 0.00 193 0.077
3 13:00 67.1 61.4 82 SSE 6 G 9 29.51 999.4 0.00 566 0.059
3 12:00 66.3 59.6 79 SE 4 G 7 29.53 1000.0 0.00 933 0.040
3 11:00 68.8 60.9 76 W 2 G 5 29.55 1000.6 0.00 772 0.024
3 10:00 64.1 58.5 82 W 4 G 9 29.57 1001.4 0.00 712 0.014
3 09:00 61.8 57.9 87 SW 2 G 5 29.58 1001.8 0.00 292 0.010
3 08:00 60.9 58.3 60.9 56.3 91 SW 3 G 6 29.59 1002.2 0.00 274 0.005
3 07:00 57.4 56.0 95 WSW 3 G 7 29.62 1003.0 0.00 79 0.003
3 06:00 56.4 55.3 96 SW 8 G 11 29.63 1003.4 0.00 33 0.003
3 05:00 56.8 55.7 96 SW 4 G 9 29.65 1004.1 0.00 0 0.003
3 04:00 56.8 55.4 95 SW 10 G 15 29.65 1004.0 0.00 0 0.003
3 03:00 56.9 55.2 94 SSW 12 G 17 29.66 1004.5 0.00 0 0.002
3 02:00 57.0 55.0 59.0 56.2 93 SW 10 G 15 29.70 1005.7 0.07 0.00 0 0.001
3 01:00 56.8 54.5 92 SSW 9 G 13 29.73 1006.7 0.00 0 0.000
3 00:00 56.6 54.3 92 SSW 7 G 10 29.77 1008.0 0.07 0 0.151
2 23:00 56.5 54.2 92 SW 10 G 14 29.79 1008.8 0.07 0.07 0 0.150
2 22:00 56.6 54.0 91 SW 9 G 12 29.81 1009.5 0.07 0 0.149
2 21:00 58.3 53.8 85 SSW 5 G 8 29.82 1009.8 0.07 0.07 0 0.148
2 20:00 59.0 54.2 61.0 56.0 84 SSW 9 G 11 29.80 1009.3 0.00 0 0.146
2 19:00 60.4 54.5 81 SSW 9 G 12 29.80 1009.1 0.00 40 0.143
2 18:00 60.8 54.6 80 SSW 10 G 15 29.80 1009.1 0.00 144 0.137
2 17:00 60.2 52.6 76 S 13 G 18 29.81 1009.7 0.00 163 0.131
2 16:00 57.4 50.9 79 SE 14 G 18 29.84 1010.5 0.00 234 0.120
2 15:00 56.8 49.0 75 ESE 11 G 16 29.88 1011.8 0.00 758 0.102
2 14:00 56.0 48.5 56.6 53.9 76 SE 10 G 14 29.90 1012.4 0.00 837 0.086
2 13:00 55.9 46.6 71 SE 7 G 12 29.93 1013.5 0.00 594 0.069
2 12:00 55.7 46.8 72 ESE 5 G 10 29.95 1014.4 0.00 993 0.050
2 11:00 54.3 46.2 74 E 8 G 12 29.97 1015.0 0.00 772 0.037
2 10:00 54.2 46.8 76 E 6 G 8 29.99 1015.6 0.00 617 0.026
2 09:00 54.9 47.1 75 NE 4 G 5 30.01 1016.2 0.00 613 0.016
2 08:00 54.4 47.7 54.9 49.3 78 NNE 2 G 5 30.02 1016.6 0.00 348 0.010
2 07:00 53.1 46.8 79 N 2 G 4 30.01 1016.5 0.00 207 0.007
2 06:00 49.7 44.1 81 N 2 G 5 30.01 1016.3 0.00 72 0.006
2 05:00 49.7 43.5 79 N 4 G 8 30.00 1016.1 0.00 0 0.005
2 04:00 50.0 43.1 77 N 4 G 9 30.01 1016.3 0.00 0 0.004
2 03:00 51.7 44.7 77 NNW 7 G 13 29.99 1015.7 0.00 0 0.003
2 02:00 52.3 44.6 57.4 52.3 75 NNW 6 G 10 29.99 1015.7 0.00 0 0.002
2 01:00 53.8 44.3 70 NNW 7 G 11 30.00 1016.0 0.00 0 0.000
2 00:00 55.1 44.3 67 N 6 G 10 30.00 1016.1 0.00 0 0.157
1 23:00 57.0 46.2 67 NW 8 G 13 30.02 1016.7 0.00 0 0.155
1 22:00 56.3 46.3 69 WNW 7 G 10 30.02 1016.8 0.00 0 0.154
1 21:00 54.9 47.1 75 SW 9 G 11 30.02 1016.6 0.00 0 0.152
1 20:00 55.6 46.0 56.5 54.5 70 S 10 G 12 30.01 1016.3 0.00 9 0.149
1 19:00 55.2 47.1 74 SSE 8 G 14 30.01 1016.4 0.00 44 0.145
1 18:00 55.4 45.0 68 S 12 G 17 30.01 1016.3 0.00 425 0.139
1 17:00 55.7 45.7 69 S 9 G 12 30.02 1016.6 0.00 608 0.132

Data generated by WxSolution Version 1.9.1.1, Build 2017.11.27.